Time;durP1;ratioP1;P1;durP2;ratioP2;P2;SDS_P1;SDS_P2;PMS_P1;PMS_P2;Temp;Humidity;BMP_temperature;BMP_pressure;BME280_temperature;BME280_humidity;BME280_pressure;Samples;Min_cycle;Max_cycle;Signal;HPM_P1;HPM_P2
2022/03/14 00:01:19;;;;;;;1.77;1.65;;;16.40;72.50;;;;;;5072524;28;20074;-72
2022/03/14 00:03:53;;;;;;;2.25;1.35;;;16.40;72.50;;;;;;5072632;28;20043;-69
2022/03/14 00:06:20;;;;;;;1.30;1.20;;;16.40;72.50;;;;;;5072599;28;20063;-74
2022/03/14 00:08:46;;;;;;;1.50;1.27;;;16.40;72.30;;;;;;5072474;28;20043;-73
2022/03/14 00:11:16;;;;;;;1.75;0.88;;;16.40;72.30;;;;;;5072475;28;20025;-71
2022/03/14 00:13:46;;;;;;;1.48;1.20;;;16.50;72.40;;;;;;5072342;28;20032;-70
2022/03/14 00:16:15;;;;;;;1.65;1.42;;;16.40;72.30;;;;;;5072506;28;20017;-74
2022/03/14 00:18:43;;;;;;;1.98;1.67;;;16.40;72.40;;;;;;5073147;28;20043;-73
2022/03/14 00:21:09;;;;;;;2.05;1.85;;;16.30;72.50;;;;;;5076401;28;20012;-72
2022/03/14 00:23:34;;;;;;;1.92;1.58;;;16.30;72.50;;;;;;5076128;28;20031;-73
2022/03/14 00:26:00;;;;;;;1.67;1.58;;;16.20;72.70;;;;;;5076092;28;20020;-73
2022/03/14 00:28:25;;;;;;;1.95;1.83;;;16.20;72.80;;;;;;5075955;28;20055;-66
2022/03/14 00:30:51;;;;;;;2.25;2.05;;;16.10;73.20;;;;;;5076024;28;20047;-67
2022/03/14 00:33:16;;;;;;;2.40;2.17;;;16.10;73.60;;;;;;5076253;28;20473;-63
2022/03/14 00:35:42;;;;;;;2.15;1.95;;;16.10;74.00;;;;;;5075761;28;20036;-66
2022/03/14 00:38:07;;;;;;;1.65;1.55;;;16.10;73.80;;;;;;5075945;28;20492;-63
2022/03/14 00:40:34;;;;;;;2.20;1.90;;;16.00;74.10;;;;;;5075752;28;20024;-67
2022/03/14 00:43:03;;;;;;;1.65;1.52;;;16.10;74.30;;;;;;5075645;28;20104;-74
2022/03/14 00:45:31;;;;;;;3.40;1.20;;;16.00;74.30;;;;;;5075826;28;20062;-72
2022/03/14 00:47:57;;;;;;;1.25;1.13;;;16.10;73.80;;;;;;5075674;28;20029;-73
2022/03/14 00:50:22;;;;;;;1.90;1.70;;;16.10;73.80;;;;;;5075832;28;20019;-70
2022/03/14 00:52:48;;;;;;;1.58;1.23;;;16.10;73.90;;;;;;5075639;28;20024;-73
2022/03/14 00:55:13;;;;;;;1.70;1.60;;;16.00;73.90;;;;;;5075278;28;20481;-70
2022/03/14 00:57:39;;;;;;;3.50;2.30;;;16.00;74.30;;;;;;5075660;28;20485;-66
2022/03/14 01:00:06;;;;;;;2.53;2.22;;;15.90;74.60;;;;;;5075371;28;20024;-67
2022/03/14 01:02:31;;;;;;;1.23;1.10;;;15.90;74.70;;;;;;5075623;28;20044;-65
2022/03/14 01:04:57;;;;;;;1.92;1.73;;;16.00;74.40;;;;;;5075298;28;20104;-65
2022/03/14 01:07:22;;;;;;;1.50;1.40;;;15.90;74.40;;;;;;5075360;28;20052;-65
2022/03/14 01:09:48;;;;;;;5.00;2.10;;;15.90;74.40;;;;;;5075108;28;20029;-66
2022/03/14 01:12:13;;;;;;;1.58;1.48;;;15.90;74.60;;;;;;5075468;28;20027;-64
2022/03/14 01:14:39;;;;;;;1.35;1.25;;;15.90;74.40;;;;;;5075252;28;20070;-64
2022/03/14 01:17:05;;;;;;;1.73;1.25;;;15.90;74.30;;;;;;5075129;28;20021;-66
2022/03/14 01:19:30;;;;;;;1.55;1.40;;;15.90;74.10;;;;;;5075198;28;20085;-67
2022/03/14 01:21:56;;;;;;;2.53;2.10;;;16.00;74.00;;;;;;5075079;28;20430;-64
2022/03/14 01:24:24;;;;;;;3.05;1.80;;;15.90;74.10;;;;;;5074634;28;20554;-64
2022/03/14 01:26:50;;;;;;;4.70;2.03;;;15.90;74.30;;;;;;5075306;28;20033;-74
2022/03/14 01:29:17;;;;;;;3.08;1.88;;;15.90;74.40;;;;;;5074824;28;20525;-64
2022/03/14 01:31:43;;;;;;;3.58;2.28;;;15.80;74.50;;;;;;5074966;28;20409;-74
2022/03/14 01:34:09;;;;;;;2.72;1.80;;;15.90;74.70;;;;;;5075017;28;20485;-73
2022/03/14 01:36:35;;;;;;;2.20;1.83;;;15.80;74.70;;;;;;5074574;28;20113;-73
2022/03/14 01:39:00;;;;;;;2.28;2.08;;;15.80;74.70;;;;;;5074761;28;20047;-74
2022/03/14 01:41:29;;;;;;;2.60;2.28;;;15.80;74.80;;;;;;5074782;28;20021;-73
2022/03/14 01:43:55;;;;;;;1.95;1.80;;;15.80;74.90;;;;;;5074820;28;20027;-72
2022/03/14 01:46:22;;;;;;;2.50;1.65;;;15.80;75.10;;;;;;5074566;28;20044;-74
2022/03/14 01:48:48;;;;;;;2.28;1.85;;;15.80;74.90;;;;;;5074668;28;20020;-69
2022/03/14 01:51:14;;;;;;;2.60;2.40;;;15.80;74.70;;;;;;5074451;28;20592;-67
2022/03/14 01:53:40;;;;;;;2.97;2.00;;;15.80;74.80;;;;;;5074556;28;20458;-73
2022/03/14 01:56:06;;;;;;;4.22;2.97;;;15.70;75.00;;;;;;5074155;28;20044;-72
2022/03/14 01:58:32;;;;;;;2.50;1.98;;;15.70;75.10;;;;;;5074600;28;20029;-69
2022/03/14 02:00:59;;;;;;;2.60;1.92;;;15.70;75.10;;;;;;5074297;28;20020;-69
2022/03/14 02:03:24;;;;;;;3.05;2.75;;;15.80;74.90;;;;;;5074249;28;20129;-67
2022/03/14 02:05:50;;;;;;;3.28;2.97;;;15.70;75.00;;;;;;5074516;28;20453;-67
2022/03/14 02:08:16;;;;;;;3.50;3.20;;;15.70;75.20;;;;;;5073917;28;20036;-63
2022/03/14 02:10:41;;;;;;;3.10;2.85;;;15.70;75.40;;;;;;5074213;28;20020;-63
2022/03/14 02:13:11;;;;;;;5.25;3.53;;;15.70;75.10;;;;;;5074023;28;20025;-64
2022/03/14 02:15:40;;;;;;;2.55;2.35;;;15.70;75.10;;;;;;5074234;28;20025;-64
2022/03/14 02:18:06;;;;;;;3.63;3.33;;;15.70;75.00;;;;;;5073928;28;20029;-63
2022/03/14 02:20:33;;;;;;;5.13;4.45;;;15.60;75.10;;;;;;5073777;28;20027;-63
2022/03/14 02:22:58;;;;;;;4.95;4.55;;;15.60;75.10;;;;;;5073703;28;20039;-63
2022/03/14 02:25:24;;;;;;;8.98;5.30;;;15.60;75.40;;;;;;5074002;28;20021;-63
2022/03/14 02:27:50;;;;;;;5.57;5.07;;;15.50;76.00;;;;;;5073855;28;20028;-63
2022/03/14 02:30:16;;;;;;;5.57;5.07;;;15.50;76.10;;;;;;5073703;28;20024;-63
2022/03/14 02:32:42;;;;;;;4.63;4.18;;;15.50;76.10;;;;;;5073636;28;20070;-62
2022/03/14 02:35:11;;;;;;;6.72;6.13;;;15.50;75.90;;;;;;5073583;28;20527;-63
2022/03/14 02:37:38;;;;;;;6.75;5.50;;;15.40;76.50;;;;;;5073469;28;20029;-67
2022/03/14 02:40:05;;;;;;;4.20;3.72;;;15.40;76.70;;;;;;5073530;28;20024;-65
2022/03/14 02:42:31;;;;;;;6.32;5.28;;;15.40;76.30;;;;;;5072797;28;20020;-63
2022/03/14 02:44:56;;;;;;;6.10;4.70;;;15.40;76.50;;;;;;5073622;28;20029;-63
2022/03/14 02:47:22;;;;;;;5.97;5.38;;;15.40;76.90;;;;;;5073379;28;20031;-63
2022/03/14 02:49:48;;;;;;;6.38;5.43;;;15.30;76.70;;;;;;5073586;28;20024;-64
2022/03/14 02:52:14;;;;;;;6.68;6.03;;;15.30;76.80;;;;;;5072949;28;20035;-63
2022/03/14 02:54:40;;;;;;;7.97;6.45;;;15.30;77.30;;;;;;5073305;28;20426;-64
2022/03/14 02:57:05;;;;;;;6.72;6.05;;;15.20;77.40;;;;;;5073491;28;20058;-64
2022/03/14 02:59:32;;;;;;;7.05;6.35;;;15.20;77.50;;;;;;5073325;28;20028;-63
2022/03/14 03:01:58;;;;;;;7.30;6.40;;;15.20;77.40;;;;;;5073144;28;20032;-66
2022/03/14 03:04:23;;;;;;;8.32;7.55;;;15.10;77.50;;;;;;5073126;28;20465;-63
2022/03/14 03:06:49;;;;;;;7.15;6.50;;;15.10;77.90;;;;;;5073041;28;20121;-63
2022/03/14 03:09:15;;;;;;;7.20;6.40;;;15.10;77.70;;;;;;5073205;28;20017;-63
2022/03/14 03:11:40;;;;;;;7.10;6.25;;;15.10;77.90;;;;;;5073167;28;20473;-68
2022/03/14 03:14:06;;;;;;;7.32;6.63;;;15.10;77.90;;;;;;5073229;28;20028;-64
2022/03/14 03:16:34;;;;;;;10.15;7.32;;;15.20;77.40;;;;;;5072917;28;20024;-63
2022/03/14 03:19:00;;;;;;;8.38;7.57;;;15.10;77.50;;;;;;5086231;28;20036;-63
2022/03/14 03:21:26;;;;;;;8.35;7.55;;;15.10;77.90;;;;;;5091962;28;20479;-63
2022/03/14 03:23:52;;;;;;;9.65;8.43;;;15.00;78.10;;;;;;5091390;28;20024;-63
2022/03/14 03:26:18;;;;;;;7.50;6.57;;;15.00;78.40;;;;;;5093125;28;20026;-62
2022/03/14 03:28:44;;;;;;;8.85;6.93;;;15.00;78.00;;;;;;5093006;28;20540;-63
2022/03/14 03:31:12;;;;;;;8.23;7.43;;;15.00;78.10;;;;;;5093244;28;20040;-63
2022/03/14 03:33:38;;;;;;;8.35;6.85;;;15.00;78.10;;;;;;5093113;28;20027;-63
2022/03/14 03:36:05;;;;;;;7.80;7.13;;;15.00;78.00;;;;;;5092655;28;20426;-63
2022/03/14 03:38:31;;;;;;;7.00;6.30;;;15.00;78.20;;;;;;5092935;28;20370;-64
2022/03/14 03:40:56;;;;;;;5.25;4.75;;;15.00;77.80;;;;;;5093223;28;20483;-63
2022/03/14 03:43:22;;;;;;;5.65;5.15;;;15.00;77.50;;;;;;5092961;28;20059;-63
2022/03/14 03:45:47;;;;;;;5.18;4.45;;;15.10;77.50;;;;;;5093090;28;20028;-63
2022/03/14 03:48:13;;;;;;;6.75;4.47;;;15.00;77.40;;;;;;5092971;28;20040;-62
2022/03/14 03:50:39;;;;;;;3.35;2.83;;;15.10;77.50;;;;;;5092612;28;20541;-63
2022/03/14 03:58:10;;;;;;;4.78;3.70;;;15.00;77.60;;;;;;5072946;28;20040;-63
2022/03/14 04:00:36;;;;;;;5.90;5.22;;;15.00;77.40;;;;;;5135628;22;20051;-62
2022/03/14 04:08:19;;;;;;;6.80;5.93;;;15.00;77.50;;;;;;4898112;26;20053;-64
2022/03/14 04:10:54;;;;;;;6.90;4.63;;;15.00;77.90;;;;;;5127517;22;20502;-56
2022/03/14 04:13:20;;;;;;;5.20;4.70;;;15.00;77.60;;;;;;5137567;27;20022;-56
2022/03/14 04:18:25;;;;;;;4.43;3.58;;;14.90;77.70;;;;;;5532808;22;20420;-64
2022/03/14 04:20:52;;;;;;;4.72;3.65;;;15.00;77.30;;;;;;5077265;23;20045;-53
2022/03/14 04:25:53;;;;;;;5.68;5.15;;;14.90;77.60;;;;;;5314505;23;20111;-63
2022/03/14 04:28:19;;;;;;;9.02;5.53;;;14.90;77.80;;;;;;5049489;23;20053;-63
2022/03/14 04:30:45;;;;;;;10.90;7.20;;;14.90;78.10;;;;;;5035424;28;20053;-61
2022/03/14 04:33:10;;;;;;;8.95;5.78;;;14.80;78.30;;;;;;5036191;28;20553;-63
2022/03/14 04:35:36;;;;;;;10.35;7.32;;;14.80;78.50;;;;;;5018237;28;20079;-63
2022/03/14 04:38:04;;;;;;;7.30;5.35;;;14.80;78.90;;;;;;5035948;28;20116;-64
2022/03/14 04:40:32;;;;;;;3.58;3.17;;;14.80;78.50;;;;;;5035607;28;20080;-62
2022/03/14 04:42:58;;;;;;;4.18;2.60;;;14.80;78.20;;;;;;5034676;28;20087;-62
2022/03/14 04:45:24;;;;;;;5.65;4.93;;;14.80;78.10;;;;;;5035872;28;20465;-64
2022/03/14 04:47:49;;;;;;;5.57;4.15;;;14.80;78.20;;;;;;5035817;28;20021;-63
2022/03/14 04:50:16;;;;;;;2.78;2.42;;;14.90;77.90;;;;;;5035721;28;20021;-63
2022/03/14 04:52:41;;;;;;;6.40;4.53;;;14.90;77.90;;;;;;5035212;28;20486;-63
2022/03/14 04:55:07;;;;;;;2.78;1.75;;;14.90;77.60;;;;;;5033692;28;20032;-64
2022/03/14 04:57:33;;;;;;;5.82;4.40;;;15.00;77.40;;;;;;5035457;28;20053;-63
2022/03/14 04:59:58;;;;;;;6.05;5.07;;;15.00;77.30;;;;;;5035578;28;20057;-63
2022/03/14 05:02:24;;;;;;;6.60;5.93;;;15.00;77.50;;;;;;5034678;28;20458;-63
2022/03/14 05:04:50;;;;;;;5.70;3.28;;;14.90;77.60;;;;;;5034970;28;20049;-64
2022/03/14 05:07:17;;;;;;;7.95;5.38;;;15.00;77.40;;;;;;5035217;28;20458;-61
2022/03/14 05:09:42;;;;;;;6.65;5.30;;;15.00;77.60;;;;;;5032031;28;20018;-64
2022/03/14 05:12:08;;;;;;;4.00;2.80;;;14.90;77.80;;;;;;5034185;28;20072;-64
2022/03/14 05:14:34;;;;;;;7.50;4.18;;;15.00;77.70;;;;;;5016745;28;20520;-63
2022/03/14 05:17:00;;;;;;;7.00;4.20;;;15.00;77.50;;;;;;5015627;28;20402;-64
2022/03/14 05:19:25;;;;;;;7.57;5.47;;;15.00;77.20;;;;;;5031398;28;20033;-65
2022/03/14 05:21:51;;;;;;;5.25;4.68;;;15.00;77.40;;;;;;5032981;28;20386;-64
2022/03/14 05:24:17;;;;;;;5.47;3.55;;;15.00;77.30;;;;;;5033011;28;20112;-64
2022/03/14 05:26:43;;;;;;;5.85;4.53;;;15.00;77.20;;;;;;5034546;28;20025;-62
2022/03/14 05:29:12;;;;;;;5.22;2.72;;;15.00;77.50;;;;;;5034706;28;20379;-63
2022/03/14 05:31:38;;;;;;;9.13;5.65;;;15.00;77.40;;;;;;5034595;28;20030;-63
2022/03/14 05:34:04;;;;;;;5.50;4.43;;;15.00;77.70;;;;;;5034694;28;20030;-63
2022/03/14 05:36:29;;;;;;;8.55;5.50;;;14.90;77.80;;;;;;5035220;28;20025;-63
2022/03/14 05:38:55;;;;;;;8.82;4.97;;;14.90;77.90;;;;;;5034363;28;20038;-63
2022/03/14 05:41:20;;;;;;;5.75;4.63;;;14.90;78.10;;;;;;5034843;28;20462;-63
2022/03/14 05:43:46;;;;;;;6.72;5.10;;;14.80;78.20;;;;;;5034878;28;20021;-64
2022/03/14 05:46:11;;;;;;;6.22;5.07;;;14.80;78.40;;;;;;5034706;28;20029;-64
2022/03/14 05:48:37;;;;;;;6.20;2.42;;;14.80;78.30;;;;;;5034674;28;20079;-64
2022/03/14 05:51:07;;;;;;;5.55;4.18;;;14.90;77.70;;;;;;5034894;28;20025;-65
2022/03/14 05:53:32;;;;;;;5.72;3.85;;;14.90;77.70;;;;;;5034525;28;20021;-64
2022/03/14 05:55:58;;;;;;;7.57;5.15;;;15.00;77.50;;;;;;5034348;28;20113;-64
2022/03/14 05:58:24;;;;;;;4.00;2.08;;;14.90;77.80;;;;;;5034602;28;20087;-64
2022/03/14 06:00:52;;;;;;;5.65;4.43;;;14.90;77.70;;;;;;5036246;28;20016;-64
2022/03/14 06:03:19;;;;;;;6.55;4.85;;;14.90;78.00;;;;;;5042314;28;20022;-63
2022/03/14 06:05:47;;;;;;;5.03;2.80;;;14.80;78.00;;;;;;5032613;28;20490;-62
2022/03/14 06:08:13;;;;;;;8.45;4.57;;;14.80;77.70;;;;;;5033092;28;20020;-62
2022/03/14 06:10:39;;;;;;;5.47;3.20;;;14.80;77.70;;;;;;5013198;28;20453;-63
2022/03/14 06:13:04;;;;;;;7.53;4.82;;;14.70;77.90;;;;;;5030800;28;20029;-63
2022/03/14 06:15:30;;;;;;;9.13;5.13;;;14.70;78.30;;;;;;5034046;28;20068;-64
2022/03/14 06:17:56;;;;;;;7.07;3.92;;;14.70;78.40;;;;;;5028030;28;20386;-64
2022/03/14 06:20:22;;;;;;;8.65;5.00;;;14.70;78.10;;;;;;5033549;28;20036;-64
2022/03/14 06:22:47;;;;;;;7.80;4.47;;;14.70;78.20;;;;;;5029826;28;20511;-64
2022/03/14 06:25:15;;;;;;;5.68;4.10;;;14.70;78.10;;;;;;5033146;28;20018;-64
2022/03/14 06:27:40;;;;;;;4.68;3.40;;;14.70;78.00;;;;;;5032716;28;20385;-63
2022/03/14 06:30:08;;;;;;;4.60;3.15;;;14.70;77.90;;;;;;5025394;28;20026;-63
2022/03/14 06:32:38;;;;;;;3.30;1.67;;;14.80;78.20;;;;;;5027355;28;21017;-61
2022/03/14 06:35:05;;;;;;;5.57;4.25;;;14.90;77.80;;;;;;5028223;28;20481;-62
2022/03/14 06:37:31;;;;;;;7.95;3.50;;;14.90;77.50;;;;;;5025737;28;20034;-64
2022/03/14 06:39:56;;;;;;;15.05;5.15;;;14.90;77.50;;;;;;5025399;28;20026;-62
2022/03/14 06:42:23;;;;;;;8.48;5.72;;;14.90;78.00;;;;;;5031730;28;20021;-64
2022/03/14 06:44:50;;;;;;;12.30;2.47;;;14.80;78.00;;;;;;5018630;28;20033;-62
2022/03/14 06:47:20;;;;;;;7.57;3.55;;;14.80;78.30;;;;;;5030597;28;20484;-63
2022/03/14 06:49:46;;;;;;;15.45;4.28;;;14.90;79.10;;;;;;5031865;28;20155;-64
2022/03/14 06:52:12;;;;;;;8.10;4.63;;;14.90;79.20;;;;;;5017254;28;20472;-63
2022/03/14 06:54:38;;;;;;;8.73;5.05;;;14.90;78.90;;;;;;5027653;28;20155;-63
2022/03/14 06:57:05;;;;;;;11.18;5.80;;;14.90;78.60;;;;;;5030604;28;20468;-60
2022/03/14 06:59:30;;;;;;;8.52;5.95;;;14.90;78.50;;;;;;5009590;28;20049;-60
2022/03/14 07:01:56;;;;;;;7.82;5.60;;;14.70;78.60;;;;;;5027310;28;20424;-62
2022/03/14 07:04:22;;;;;;;12.52;6.00;;;14.70;78.70;;;;;;5020216;28;20035;-62
2022/03/14 07:06:47;;;;;;;11.40;7.35;;;14.60;79.10;;;;;;5021069;28;20471;-61
2022/03/14 07:09:13;;;;;;;11.80;6.43;;;14.60;79.40;;;;;;5028729;28;20044;-62
2022/03/14 07:11:38;;;;;;;16.23;7.35;;;14.50;79.60;;;;;;5019627;28;20121;-61
2022/03/14 07:14:04;;;;;;;10.60;6.80;;;14.50;79.90;;;;;;5012083;28;20072;-56
2022/03/14 07:16:29;;;;;;;11.13;7.55;;;14.50;80.10;;;;;;5013186;28;20026;-65
2022/03/14 07:18:55;;;;;;;10.43;7.07;;;14.50;80.50;;;;;;5012336;28;20533;-57
2022/03/14 07:21:28;;;;;;;11.27;5.85;;;14.40;80.60;;;;;;5012896;28;20489;-57
2022/03/14 07:23:55;;;;;;;9.75;5.25;;;14.50;81.20;;;;;;5013350;28;20026;-59
2022/03/14 07:26:21;;;;;;;13.25;5.30;;;14.50;80.90;;;;;;5013533;28;20489;-63
2022/03/14 07:28:48;;;;;;;12.02;5.45;;;14.50;80.90;;;;;;5012819;28;20502;-62
2022/03/14 07:31:14;;;;;;;11.88;5.85;;;14.50;80.70;;;;;;5013488;28;20022;-64
2022/03/14 07:33:40;;;;;;;9.65;5.22;;;14.50;80.70;;;;;;5013264;28;20025;-63
2022/03/14 07:36:05;;;;;;;10.50;6.18;;;14.60;80.70;;;;;;5013390;28;20030;-63
2022/03/14 07:38:31;;;;;;;10.43;5.85;;;14.50;80.60;;;;;;5015862;28;20037;-65
2022/03/14 07:40:56;;;;;;;11.98;6.13;;;14.50;80.50;;;;;;5031896;28;20034;-64
2022/03/14 07:43:22;;;;;;;15.43;6.28;;;14.50;80.70;;;;;;5032865;28;20397;-62
2022/03/14 07:45:48;;;;;;;11.73;6.10;;;14.50;80.80;;;;;;5033052;28;20071;-65
2022/03/14 07:48:13;;;;;;;8.60;6.40;;;14.50;80.90;;;;;;5032158;28;20026;-63
2022/03/14 07:50:41;;;;;;;8.90;4.45;;;14.50;81.00;;;;;;5032873;28;20477;-59
2022/03/14 07:53:07;;;;;;;8.80;5.38;;;14.50;81.00;;;;;;5025488;28;20056;-53
2022/03/14 07:55:33;;;;;;;9.05;5.07;;;14.50;80.90;;;;;;5028533;28;20474;-58
2022/03/14 07:57:58;;;;;;;12.02;5.60;;;14.60;80.90;;;;;;5031441;28;20053;-61
2022/03/14 08:00:24;;;;;;;8.20;3.75;;;14.50;80.80;;;;;;5031142;28;20026;-55
2022/03/14 08:02:50;;;;;;;8.57;4.80;;;14.60;80.70;;;;;;5025843;28;20094;-55
2022/03/14 08:05:17;;;;;;;10.65;3.85;;;14.60;80.70;;;;;;5032183;28;20394;-55
2022/03/14 08:07:47;;;;;;;4.60;2.47;;;14.60;80.70;;;;;;5031102;28;20470;-55
2022/03/14 08:10:16;;;;;;;15.57;3.05;;;14.70;80.80;;;;;;5030779;28;20068;-58
2022/03/14 08:12:43;;;;;;;8.38;3.00;;;14.80;80.70;;;;;;5031510;28;20074;-58
2022/03/14 08:15:09;;;;;;;5.55;2.75;;;14.80;80.90;;;;;;5032230;28;20029;-63
2022/03/14 08:17:35;;;;;;;14.13;3.08;;;14.90;80.70;;;;;;5032259;28;20044;-63
2022/03/14 08:20:02;;;;;;;10.20;3.40;;;14.90;80.30;;;;;;5032636;28;20059;-60
2022/03/14 08:22:27;;;;;;;9.18;3.28;;;15.00;80.20;;;;;;5031652;28;20092;-64
2022/03/14 08:24:53;;;;;;;8.40;3.10;;;15.10;80.00;;;;;;5032658;28;20100;-63
2022/03/14 08:27:18;;;;;;;9.57;3.08;;;15.10;79.60;;;;;;5032121;28;20164;-64
2022/03/14 08:29:44;;;;;;;7.93;3.30;;;15.00;79.40;;;;;;5032301;28;20486;-62
2022/03/14 08:32:12;;;;;;;10.90;3.60;;;15.10;79.50;;;;;;5030865;28;20564;-63
2022/03/14 08:34:38;;;;;;;9.05;3.45;;;15.10;79.40;;;;;;5032431;28;20061;-63
2022/03/14 08:37:04;;;;;;;10.05;3.53;;;15.10;79.60;;;;;;5032210;28;20057;-64
2022/03/14 08:39:31;;;;;;;9.80;3.00;;;15.10;79.20;;;;;;5025365;28;20038;-63
2022/03/14 08:41:57;;;;;;;10.85;4.05;;;15.10;79.10;;;;;;5026830;28;20029;-64
2022/03/14 08:44:23;;;;;;;7.82;3.75;;;15.20;78.90;;;;;;5031936;28;20076;-63
2022/03/14 08:46:48;;;;;;;10.18;3.20;;;15.20;78.90;;;;;;5034157;28;20028;-63
2022/03/14 08:49:14;;;;;;;10.35;3.55;;;15.20;78.70;;;;;;5034869;28;20105;-64
2022/03/14 08:51:40;;;;;;;8.15;3.72;;;15.20;78.60;;;;;;5020882;28;20033;-64
2022/03/14 08:54:06;;;;;;;11.18;3.45;;;15.20;78.60;;;;;;5020678;28;20025;-64
2022/03/14 08:56:33;;;;;;;7.57;3.10;;;15.20;78.60;;;;;;5026568;28;20110;-63
2022/03/14 08:58:58;;;;;;;9.75;3.42;;;15.20;78.50;;;;;;5021874;28;20073;-63
2022/03/14 09:01:24;;;;;;;10.05;3.83;;;15.20;78.50;;;;;;5028753;28;20021;-63
2022/03/14 09:03:50;;;;;;;6.75;3.22;;;15.20;78.50;;;;;;5031779;28;20041;-63
2022/03/14 09:06:17;;;;;;;10.45;3.75;;;15.20;78.30;;;;;;5025574;28;20425;-58
2022/03/14 09:08:43;;;;;;;9.65;3.70;;;15.30;78.30;;;;;;5028397;28;20108;-62
2022/03/14 09:11:09;;;;;;;9.52;3.83;;;15.30;78.40;;;;;;5003989;28;20101;-62
2022/03/14 09:13:34;;;;;;;10.95;3.60;;;15.30;78.30;;;;;;5005926;28;20041;-58
2022/03/14 09:16:00;;;;;;;10.13;3.17;;;15.30;78.70;;;;;;5034322;28;20087;-63
2022/03/14 09:18:28;;;;;;;11.32;3.92;;;15.30;78.00;;;;;;5033618;28;20171;-62
2022/03/14 09:20:53;;;;;;;14.80;3.78;;;15.30;78.00;;;;;;5034230;28;20049;-54
2022/03/14 09:23:24;;;;;;;9.60;3.28;;;15.30;78.00;;;;;;5034927;28;20057;-62
2022/03/14 09:25:50;;;;;;;12.02;3.45;;;15.30;77.90;;;;;;5035507;28;20022;-61
2022/03/14 09:28:15;;;;;;;6.63;3.20;;;15.40;77.70;;;;;;5034596;28;20040;-64
2022/03/14 09:30:43;;;;;;;10.80;3.40;;;15.40;77.70;;;;;;5034393;28;20033;-61
2022/03/14 09:33:08;;;;;;;13.57;3.15;;;15.40;77.80;;;;;;5015225;28;20145;-61
2022/03/14 09:35:34;;;;;;;9.60;3.45;;;15.40;77.80;;;;;;5021431;28;20448;-62
2022/03/14 09:38:00;;;;;;;11.02;3.38;;;15.40;77.60;;;;;;5034789;28;20041;-64
2022/03/14 09:40:29;;;;;;;7.80;3.15;;;15.40;77.60;;;;;;5035102;28;20028;-64
2022/03/14 09:42:55;;;;;;;9.55;3.30;;;15.40;77.60;;;;;;5033158;28;20029;-64
2022/03/14 09:45:21;;;;;;;7.95;3.00;;;15.40;77.50;;;;;;5034294;28;20474;-63
2022/03/14 09:47:52;;;;;;;8.25;2.72;;;15.50;77.50;;;;;;5034462;28;20128;-64
2022/03/14 09:50:29;;;;;;;5.25;2.65;;;15.40;77.30;;;;;;5034221;28;20091;-63
2022/03/14 09:52:56;;;;;;;11.18;2.72;;;15.50;77.10;;;;;;5034558;28;20033;-63
2022/03/14 09:55:22;;;;;;;9.52;2.13;;;15.50;77.10;;;;;;5034089;28;20032;-63
2022/03/14 09:57:48;;;;;;;6.07;2.53;;;15.50;76.90;;;;;;5034336;28;20124;-63
2022/03/14 10:00:14;;;;;;;6.30;2.75;;;15.60;76.80;;;;;;5034122;28;20066;-64
2022/03/14 10:02:44;;;;;;;6.38;2.65;;;15.60;76.70;;;;;;5033956;28;20428;-64
2022/03/14 10:05:15;;;;;;;7.78;2.88;;;15.60;76.70;;;;;;5034436;28;20021;-62
2022/03/14 10:07:46;;;;;;;9.30;3.08;;;15.60;76.90;;;;;;5034458;28;20091;-63
2022/03/14 10:10:13;;;;;;;8.60;2.45;;;15.60;76.60;;;;;;5034362;28;20132;-63
2022/03/14 10:12:41;;;;;;;8.63;2.33;;;15.60;76.50;;;;;;5033637;28;20029;-63
2022/03/14 10:15:08;;;;;;;11.02;3.70;;;15.60;76.50;;;;;;5033275;28;20053;-64
2022/03/14 10:17:35;;;;;;;4.90;1.77;;;15.60;76.50;;;;;;5034043;28;20116;-63
2022/03/14 10:20:03;;;;;;;6.07;2.92;;;15.70;76.60;;;;;;5016177;28;20025;-64
2022/03/14 10:22:34;;;;;;;5.93;2.15;;;15.60;76.50;;;;;;5034231;28;20482;-63
2022/03/14 10:25:20;;;;;;;7.38;2.42;;;15.70;76.50;;;;;;5022015;28;20033;-63
2022/03/14 10:27:49;;;;;;;9.25;2.92;;;15.70;76.10;;;;;;5030244;28;20112;-64
2022/03/14 10:30:27;;;;;;;8.27;2.20;;;15.70;76.10;;;;;;5033906;28;20527;-63
2022/03/14 10:33:08;;;;;;;7.32;2.03;;;15.80;75.10;;;;;;5033883;28;20103;-63
2022/03/14 10:35:35;;;;;;;8.32;2.58;;;15.80;75.10;;;;;;5033597;28;20470;-63
2022/03/14 10:38:04;;;;;;;8.13;2.47;;;15.70;75.20;;;;;;5033556;28;20080;-64
2022/03/14 10:40:32;;;;;;;8.55;2.40;;;15.80;75.70;;;;;;5033628;28;20099;-63
2022/03/14 10:42:58;;;;;;;8.27;2.20;;;15.70;75.50;;;;;;5033391;28;20025;-63
2022/03/14 10:45:24;;;;;;;6.78;2.45;;;15.80;75.90;;;;;;5033762;28;20033;-63
2022/03/14 10:47:56;;;;;;;6.20;2.42;;;15.80;76.00;;;;;;5033740;28;20410;-64
2022/03/14 10:50:29;;;;;;;;;;;15.90;76.40;;;;;;5033656;28;20355;-64
2022/03/14 10:53:01;;;;;;;;;;;15.80;76.30;;;;;;5033623;28;19944;-63
2022/03/14 10:55:46;;;;;;;6.38;2.13;;;15.70;76.40;;;;;;5033339;28;19964;-63
2022/03/14 10:58:23;;;;;;;8.18;2.70;;;15.80;76.80;;;;;;5032949;28;20052;-63
2022/03/14 11:00:56;;;;;;;6.63;1.80;;;15.80;76.60;;;;;;5032481;28;20037;-63
2022/03/14 11:03:30;;;;;;;7.40;1.88;;;15.80;76.80;;;;;;5012453;28;20018;-64
2022/03/14 11:05:59;;;;;;;7.15;2.42;;;15.90;76.70;;;;;;5032284;28;20025;-63
2022/03/14 11:08:28;;;;;;;6.00;2.28;;;15.90;76.50;;;;;;5022586;28;20134;-64
2022/03/14 11:10:55;;;;;;;8.43;2.03;;;15.90;76.60;;;;;;5026694;28;20108;-63
2022/03/14 11:13:20;;;;;;;6.05;2.58;;;15.90;76.30;;;;;;5031706;28;20112;-64
2022/03/14 11:15:46;;;;;;;9.95;1.80;;;15.90;76.30;;;;;;5029695;28;20121;-63
2022/03/14 11:18:12;;;;;;;11.10;2.70;;;16.00;76.50;;;;;;5031390;28;20045;-63
2022/03/14 11:20:39;;;;;;;8.45;1.92;;;16.10;76.50;;;;;;5032406;28;20053;-64
2022/03/14 11:23:05;;;;;;;10.38;2.30;;;16.10;77.10;;;;;;5030585;28;20037;-65
2022/03/14 11:25:32;;;;;;;6.93;2.15;;;16.10;77.00;;;;;;5032064;28;20021;-64
2022/03/14 11:27:58;;;;;;;10.35;2.60;;;16.10;76.70;;;;;;5030392;28;20038;-64
2022/03/14 11:30:26;;;;;;;8.30;2.13;;;16.10;76.80;;;;;;5031292;28;20048;-64
2022/03/14 11:32:52;;;;;;;7.95;2.70;;;16.20;77.10;;;;;;5032906;28;20028;-64
2022/03/14 11:35:18;;;;;;;9.10;2.78;;;16.20;77.20;;;;;;5031729;28;20474;-64
2022/03/14 11:37:45;;;;;;;9.40;2.80;;;16.20;77.20;;;;;;5020544;28;20078;-62
2022/03/14 11:40:14;;;;;;;12.48;2.92;;;16.20;77.20;;;;;;4998010;28;20482;-63
2022/03/14 11:42:39;;;;;;;8.88;2.17;;;16.20;77.40;;;;;;5032837;28;20021;-63
2022/03/14 11:45:10;;;;;;;6.03;2.47;;;16.30;77.40;;;;;;5032293;28;20079;-64
2022/03/14 11:47:37;;;;;;;6.53;2.13;;;16.30;77.20;;;;;;5032863;28;20021;-60
2022/03/14 11:50:03;;;;;;;9.02;2.25;;;16.30;77.20;;;;;;5032357;28;20579;-64
2022/03/14 11:52:40;;;;;;;9.02;2.42;;;16.30;77.10;;;;;;5032711;28;20040;-64
2022/03/14 11:55:22;;;;;;;10.85;3.65;;;16.30;76.80;;;;;;5018267;28;20029;-64
2022/03/14 11:57:48;;;;;;;10.93;3.53;;;16.30;76.70;;;;;;5012493;28;20038;-64
2022/03/14 12:00:31;;;;;;;7.68;2.60;;;16.30;77.20;;;;;;5020839;28;20018;-64
2022/03/14 12:03:01;;;;;;;9.82;2.90;;;16.30;77.00;;;;;;5032336;28;20029;-64
2022/03/14 12:05:33;;;;;;;9.32;2.90;;;16.40;77.10;;;;;;5032501;28;20344;-65
2022/03/14 12:08:07;;;;;;;9.48;3.08;;;16.40;76.80;;;;;;5032175;28;20034;-64
2022/03/14 12:10:36;;;;;;;9.50;3.17;;;16.40;76.60;;;;;;5031522;28;20534;-61
2022/03/14 12:13:03;;;;;;;8.35;3.15;;;16.40;76.50;;;;;;5032222;28;20026;-63
2022/03/14 12:15:47;;;;;;;13.85;4.00;;;16.40;76.40;;;;;;5034998;28;20038;-64
2022/03/14 12:18:25;;;;;;;11.38;2.90;;;16.50;76.00;;;;;;5012044;28;20183;-64
2022/03/14 12:20:54;;;;;;;12.57;3.15;;;16.50;76.10;;;;;;5032736;28;20477;-64
2022/03/14 12:23:33;;;;;;;10.82;2.97;;;16.50;76.00;;;;;;5011051;28;20048;-64
2022/03/14 12:26:01;;;;;;;10.50;3.38;;;16.50;75.80;;;;;;5035230;28;20148;-63
2022/03/14 12:28:33;;;;;;;10.18;2.80;;;16.50;75.70;;;;;;5034649;28;20029;-64
2022/03/14 12:31:16;;;;;;;10.98;3.50;;;16.50;75.40;;;;;;5035046;28;20072;-65
2022/03/14 12:33:48;;;;;;;13.20;4.30;;;16.50;75.30;;;;;;5033935;28;20176;-63
2022/03/14 12:36:23;;;;;;;12.73;3.95;;;16.50;75.00;;;;;;5036079;28;20477;-62
2022/03/14 12:39:07;;;;;;;10.52;2.78;;;16.50;74.90;;;;;;5033603;28;20048;-64
2022/03/14 12:41:36;;;;;;;11.45;3.38;;;16.50;75.00;;;;;;5034806;28;20025;-64
2022/03/14 12:44:15;;;;;;;12.57;4.10;;;16.50;75.00;;;;;;5035932;28;20034;-64
2022/03/14 12:46:42;;;;;;;17.65;4.35;;;16.50;75.30;;;;;;5002074;28;20104;-64
2022/03/14 12:49:07;;;;;;;12.82;4.13;;;16.40;76.10;;;;;;5036021;28;20026;-64
2022/03/14 12:51:41;;;;;;;12.02;3.05;;;16.40;76.30;;;;;;5017413;28;20041;-65
2022/03/14 12:54:06;;;;;;;11.98;3.10;;;16.50;75.80;;;;;;5033346;28;20470;-65
2022/03/14 12:56:37;;;;;;;6.20;3.08;;;16.50;75.50;;;;;;5035197;28;20045;-65
2022/03/14 12:59:07;;;;;;;12.45;3.65;;;16.50;75.60;;;;;;5027510;28;20128;-65
2022/03/14 13:01:36;;;;;;;12.43;3.15;;;16.50;75.60;;;;;;5035814;28;20017;-59